createdAt,value
2019-01-23T00:00:25.810Z,11.00
2019-01-23T00:02:54.666Z,9.77
2019-01-23T00:05:23.242Z,10.47
2019-01-23T00:07:51.818Z,10.43
2019-01-23T00:10:20.542Z,10.87
2019-01-23T00:12:49.117Z,10.50
2019-01-23T00:15:17.769Z,10.23
2019-01-23T00:17:46.374Z,10.23
2019-01-23T00:20:15.062Z,10.67
2019-01-23T00:22:43.637Z,9.63
2019-01-23T00:25:12.452Z,10.70
2019-01-23T00:27:41.034Z,10.87
2019-01-23T00:30:12.818Z,10.10
2019-01-23T00:32:41.470Z,9.67
2019-01-23T00:35:10.377Z,9.00
2019-01-23T00:37:38.973Z,8.50
2019-01-23T00:40:13.388Z,5.70
2019-01-23T00:42:42.010Z,6.63
2019-01-23T00:45:15.489Z,6.50
2019-01-23T00:47:44.306Z,6.90
2019-01-23T00:50:14.733Z,7.17
2019-01-23T00:52:43.433Z,7.23
2019-01-23T00:55:17.240Z,7.33
2019-01-23T00:57:45.813Z,7.83
2019-01-23T01:00:23.169Z,7.57
2019-01-23T01:02:52.277Z,7.40
2019-01-23T01:05:21.201Z,6.83
2019-01-23T01:07:50.077Z,6.93
2019-01-23T01:10:20.106Z,6.60
2019-01-23T01:12:49.091Z,6.23
2019-01-23T01:15:18.078Z,6.27
2019-01-23T01:17:46.985Z,5.60
2019-01-23T01:20:16.597Z,5.83
2019-01-23T01:22:45.324Z,5.93
2019-01-23T01:25:16.034Z,5.90
2019-01-23T01:27:44.950Z,6.00
2019-01-23T01:30:16.529Z,5.90
2019-01-23T01:32:45.287Z,5.23
2019-01-23T01:35:14.006Z,4.77
2019-01-23T01:37:42.937Z,5.13
2019-01-23T01:40:13.768Z,4.83
2019-01-23T01:42:42.473Z,4.83
2019-01-23T01:45:13.897Z,4.20
2019-01-23T01:47:42.535Z,4.57
2019-01-23T01:50:18.677Z,4.27
2019-01-23T01:52:47.688Z,4.30
2019-01-23T01:55:16.515Z,4.27
2019-01-23T01:57:45.174Z,4.30
2019-01-23T02:00:24.497Z,3.50
2019-01-23T02:02:53.133Z,3.80
2019-01-23T02:05:21.794Z,3.33
2019-01-23T02:07:50.610Z,3.00
2019-01-23T02:10:20.514Z,3.90
2019-01-23T02:12:49.359Z,3.30
2019-01-23T02:15:18.741Z,3.63
2019-01-23T02:17:47.862Z,3.17
2019-01-23T02:20:21.144Z,3.30
2019-01-23T02:22:49.865Z,3.60
2019-01-23T02:25:18.990Z,3.67
2019-01-23T02:27:48.111Z,2.93
2019-01-23T02:30:19.339Z,3.73
2019-01-23T02:32:48.902Z,3.60
2019-01-23T02:35:17.909Z,3.00
2019-01-23T02:37:46.549Z,2.60
2019-01-23T02:40:19.948Z,2.50
2019-01-23T02:42:48.630Z,2.80
2019-01-23T02:45:17.558Z,2.50
2019-01-23T02:47:46.184Z,1.93
2019-01-23T02:50:15.198Z,2.30
2019-01-23T02:52:43.804Z,2.50
2019-01-23T02:55:12.714Z,2.77
2019-01-23T02:57:41.527Z,2.50
2019-01-23T03:00:12.941Z,2.63
2019-01-23T03:02:41.669Z,2.17
2019-01-23T03:05:12.881Z,2.73
2019-01-23T03:07:41.506Z,2.60
2019-01-23T03:10:12.901Z,2.53
2019-01-23T03:12:41.556Z,2.47
2019-01-23T03:15:12.562Z,2.17
2019-01-23T03:17:41.485Z,2.90
2019-01-23T03:20:12.131Z,2.33
2019-01-23T03:22:40.730Z,2.50
2019-01-23T03:25:11.138Z,2.00
2019-01-23T03:27:39.788Z,2.77
2019-01-23T03:30:17.439Z,2.47
2019-01-23T03:32:46.076Z,2.27
2019-01-23T03:35:14.718Z,2.77
2019-01-23T03:37:43.462Z,2.70
2019-01-23T03:40:14.949Z,3.13
2019-01-23T03:42:43.958Z,2.70
2019-01-23T03:45:15.070Z,2.87
2019-01-23T03:47:43.885Z,2.70
2019-01-23T03:50:17.797Z,2.30
2019-01-23T03:52:46.435Z,2.47
2019-01-23T03:55:17.043Z,3.17
2019-01-23T03:57:45.862Z,2.93
2019-01-23T04:00:19.859Z,2.40
2019-01-23T04:02:49.582Z,2.50
2019-01-23T04:05:18.290Z,2.87
2019-01-23T04:07:47.006Z,2.67
2019-01-23T04:10:16.816Z,3.20
2019-01-23T04:12:45.626Z,2.83
2019-01-23T04:15:16.310Z,2.83
2019-01-23T04:17:45.144Z,3.03
2019-01-23T04:20:15.654Z,2.83
2019-01-23T04:22:44.567Z,2.77
2019-01-23T04:25:13.803Z,2.60
2019-01-23T04:27:42.438Z,3.40
2019-01-23T04:30:16.955Z,3.20
2019-01-23T04:32:45.669Z,3.17
2019-01-23T04:35:14.317Z,2.87
2019-01-23T04:37:43.051Z,3.03
2019-01-23T04:40:13.309Z,2.97
2019-01-23T04:42:41.963Z,3.13
2019-01-23T04:45:17.597Z,3.13
2019-01-23T04:47:46.307Z,2.93
2019-01-23T04:50:17.218Z,2.60
2019-01-23T04:52:47.772Z,2.47
2019-01-23T04:55:16.481Z,2.83
2019-01-23T04:57:45.059Z,2.73
2019-01-23T05:00:16.010Z,2.67
2019-01-23T05:02:44.658Z,2.20
2019-01-23T05:05:13.562Z,2.00
2019-01-23T05:07:42.134Z,2.10
2019-01-23T05:10:10.950Z,2.23
2019-01-23T05:12:39.530Z,2.23
2019-01-23T05:15:09.751Z,2.00
2019-01-23T05:17:38.388Z,2.00
2019-01-23T05:20:14.871Z,2.17
2019-01-23T05:22:43.582Z,2.80
2019-01-23T05:25:12.894Z,2.20
2019-01-23T05:27:41.635Z,2.00
2019-01-23T05:30:22.143Z,2.07
2019-01-23T05:32:50.828Z,2.20
2019-01-23T05:35:19.918Z,1.93
2019-01-23T05:37:48.509Z,1.97
2019-01-23T05:40:17.315Z,2.27
2019-01-23T05:42:45.903Z,1.97
2019-01-23T05:45:15.313Z,1.77
2019-01-23T05:47:44.034Z,2.23
2019-01-23T05:50:14.937Z,1.90
2019-01-23T05:52:43.521Z,2.03
2019-01-23T05:55:13.531Z,2.20
2019-01-23T05:57:42.322Z,2.10
2019-01-23T06:00:19.938Z,2.07
2019-01-23T06:02:48.995Z,1.80
2019-01-23T06:05:18.801Z,1.90
2019-01-23T06:07:47.823Z,2.07
2019-01-23T06:10:16.642Z,1.70
2019-01-23T06:12:45.394Z,1.90
2019-01-23T06:15:15.913Z,1.87
2019-01-23T06:17:44.704Z,2.00
2019-01-23T06:20:20.842Z,1.60
2019-01-23T06:22:49.894Z,1.73
2019-01-23T06:25:18.704Z,1.70
2019-01-23T06:27:47.273Z,2.22
2019-01-23T06:30:21.345Z,2.10
2019-01-23T06:32:49.929Z,1.67
2019-01-23T06:35:18.637Z,2.00
2019-01-23T06:37:47.326Z,2.47
2019-01-23T06:40:17.942Z,1.80
2019-01-23T06:42:46.642Z,2.27
2019-01-23T06:45:17.269Z,2.03
2019-01-23T06:47:46.906Z,1.90
2019-01-23T06:50:18.189Z,1.73
2019-01-23T06:52:47.198Z,2.00
2019-01-23T06:55:15.935Z,1.90
2019-01-23T06:57:44.854Z,1.70
2019-01-23T07:00:24.187Z,2.10
2019-01-23T07:02:53.086Z,1.93
2019-01-23T07:05:22.002Z,1.83
2019-01-23T07:07:50.569Z,1.90
2019-01-23T07:10:23.864Z,1.50
2019-01-23T07:12:52.498Z,1.83
2019-01-23T07:15:21.317Z,1.63
2019-01-23T07:17:49.962Z,1.63
2019-01-23T07:20:23.607Z,1.90
2019-01-23T07:22:52.253Z,1.83
2019-01-23T07:25:20.961Z,2.47
2019-01-23T07:27:49.623Z,1.50
2019-01-23T07:30:27.262Z,1.83
2019-01-23T07:32:55.914Z,1.67
2019-01-23T07:35:24.593Z,2.00
2019-01-23T07:37:53.313Z,1.80
2019-01-23T07:40:21.967Z,1.73
2019-01-23T07:42:50.677Z,1.77
2019-01-23T07:45:27.554Z,1.67
2019-01-23T07:47:56.198Z,1.57
2019-01-23T07:50:24.801Z,2.20
2019-01-23T07:52:53.818Z,1.40
2019-01-23T07:55:22.622Z,1.80
2019-01-23T07:57:51.270Z,1.70
2019-01-23T08:00:22.182Z,1.70
2019-01-23T08:02:51.113Z,1.53
2019-01-23T08:05:22.038Z,1.40
2019-01-23T08:07:51.142Z,1.40
2019-01-23T08:10:21.364Z,1.90
2019-01-23T08:12:50.270Z,1.50
2019-01-23T08:15:21.657Z,1.40
2019-01-23T08:17:50.366Z,1.63
2019-01-23T08:20:21.415Z,1.67
2019-01-23T08:22:50.058Z,1.63
2019-01-23T08:25:18.770Z,1.50
2019-01-23T08:27:47.418Z,1.70
2019-01-23T08:30:18.797Z,1.23
2019-01-23T08:32:47.454Z,1.20
2019-01-23T08:35:16.470Z,3.47
2019-01-23T08:37:45.181Z,1.87
2019-01-23T08:40:15.802Z,1.47
2019-01-23T08:42:44.549Z,1.80
2019-01-23T08:45:14.378Z,1.30
2019-01-23T08:47:43.018Z,1.50
2019-01-23T08:50:14.675Z,1.20
2019-01-23T08:52:43.326Z,1.40
2019-01-23T08:55:12.065Z,1.40
2019-01-23T08:57:41.000Z,1.50
2019-01-23T09:00:12.574Z,1.43
2019-01-23T09:02:41.278Z,1.47
2019-01-23T09:05:10.998Z,1.40
2019-01-23T09:07:39.706Z,1.40
2019-01-23T09:10:26.215Z,1.33
2019-01-23T09:12:54.862Z,1.60
2019-01-23T09:15:23.501Z,1.37
2019-01-23T09:17:52.150Z,1.50
2019-01-23T09:20:22.159Z,1.60
2019-01-23T09:22:50.950Z,1.50
2019-01-23T09:25:24.877Z,1.33
2019-01-23T09:27:53.808Z,1.40
2019-01-23T09:30:34.658Z,1.47
2019-01-23T09:33:22.829Z,1.60
2019-01-23T09:36:06.470Z,1.57
2019-01-23T09:38:46.383Z,1.43
2019-01-23T09:41:26.530Z,1.37
2019-01-23T09:44:12.942Z,1.50
2019-01-23T09:46:56.326Z,1.50
2019-01-23T09:49:27.973Z,1.47
2019-01-23T09:52:17.617Z,1.63
2019-01-23T09:54:46.273Z,1.77
2019-01-23T09:57:14.914Z,1.73
2019-01-23T09:59:43.486Z,1.40
2019-01-23T10:02:12.050Z,1.97
2019-01-23T10:04:40.638Z,1.70
2019-01-23T10:07:09.218Z,1.83
2019-01-23T10:09:37.849Z,2.00
2019-01-23T10:12:06.566Z,1.77
2019-01-23T10:14:35.191Z,1.90
2019-01-23T10:17:04.013Z,2.10
2019-01-23T10:19:32.674Z,2.10
2019-01-23T10:22:01.263Z,2.20
2019-01-23T10:24:35.720Z,2.30
2019-01-23T10:27:00.194Z,2.27
2019-01-23T10:29:28.842Z,2.33
2019-01-23T10:31:57.482Z,2.63
2019-01-23T10:34:26.226Z,2.50
2019-01-23T10:36:54.874Z,2.60
2019-01-23T10:39:23.510Z,2.33
2019-01-23T10:41:52.111Z,2.30
2019-01-23T10:44:20.718Z,3.10
2019-01-23T10:46:49.349Z,2.47
2019-01-23T10:49:17.926Z,2.93
2019-01-23T10:51:46.575Z,3.10
2019-01-23T10:54:15.234Z,3.50
2019-01-23T10:56:44.037Z,3.27
2019-01-23T10:59:12.686Z,3.30
2019-01-23T11:01:41.331Z,3.57
2019-01-23T11:04:10.234Z,3.37
2019-01-23T11:06:38.890Z,3.57
2019-01-23T11:09:07.714Z,3.60
2019-01-23T11:11:36.409Z,3.87
2019-01-23T11:14:05.523Z,3.60
2019-01-23T11:16:34.088Z,3.33
2019-01-23T11:19:02.822Z,3.17
2019-01-23T11:21:31.385Z,3.30
2019-01-23T11:24:00.071Z,3.40
2019-01-23T11:26:28.717Z,3.30
2019-01-23T11:28:57.286Z,3.43
2019-01-23T11:31:25.926Z,4.20
2019-01-23T11:33:54.562Z,4.00
2019-01-23T11:36:23.218Z,3.63
2019-01-23T11:38:52.650Z,3.67
2019-01-23T11:41:21.429Z,3.93
2019-01-23T11:43:50.039Z,3.27
2019-01-23T11:46:18.602Z,4.13
2019-01-23T11:48:47.199Z,4.07
2019-01-23T11:51:15.818Z,3.97
2019-01-23T11:53:44.473Z,4.27
2019-01-23T11:56:13.104Z,4.10
2019-01-23T11:58:41.682Z,4.10
2019-01-23T12:01:10.318Z,4.43
2019-01-23T12:03:38.886Z,4.17
2019-01-23T12:06:07.607Z,4.00
2019-01-23T12:08:36.170Z,3.87
2019-01-23T12:11:04.887Z,4.50
2019-01-23T12:13:33.455Z,3.77
2019-01-23T12:16:02.201Z,4.27
2019-01-23T12:18:30.770Z,4.30
2019-01-23T12:20:59.378Z,4.00
2019-01-23T12:23:27.976Z,4.00
2019-01-23T12:25:56.602Z,4.00
2019-01-23T12:28:25.190Z,4.27
2019-01-23T12:30:53.760Z,4.23
2019-01-23T12:33:22.417Z,4.33
2019-01-23T12:35:50.991Z,4.20
2019-01-23T12:38:19.626Z,4.60
2019-01-23T12:40:48.214Z,3.87
2019-01-23T12:43:16.926Z,4.23
2019-01-23T12:45:45.645Z,4.70
2019-01-23T12:48:14.227Z,4.23
2019-01-23T12:50:42.922Z,4.63
2019-01-23T12:53:13.284Z,4.47
2019-01-23T12:55:41.851Z,5.07
2019-01-23T12:58:10.501Z,4.53
2019-01-23T13:00:39.518Z,4.63
2019-01-23T13:03:08.219Z,5.70
2019-01-23T13:05:36.950Z,5.57
2019-01-23T13:08:05.966Z,5.93
2019-01-23T13:10:34.601Z,6.00
2019-01-23T13:13:03.529Z,5.23
2019-01-23T13:15:32.230Z,5.23
2019-01-23T13:18:00.815Z,5.80
2019-01-23T13:20:29.462Z,5.03
2019-01-23T13:22:58.174Z,5.37
2019-01-23T13:25:28.718Z,5.17
2019-01-23T13:27:59.326Z,5.57
2019-01-23T13:30:28.146Z,5.60
2019-01-23T13:32:56.909Z,6.43
2019-01-23T13:35:28.529Z,6.63
2019-01-23T13:37:57.165Z,6.10
2019-01-23T13:40:34.226Z,6.57
2019-01-23T13:43:03.135Z,6.60
2019-01-23T13:45:31.858Z,6.10
2019-01-23T13:48:00.502Z,6.30
2019-01-23T13:50:29.150Z,6.10
2019-01-23T13:52:57.782Z,6.20
2019-01-23T13:55:26.702Z,6.83
2019-01-23T13:57:55.382Z,5.93
2019-01-23T14:00:36.282Z,6.40
2019-01-23T14:03:05.891Z,6.73
2019-01-23T14:05:34.618Z,6.77
2019-01-23T14:08:03.434Z,7.23
2019-01-23T14:10:32.079Z,7.37
2019-01-23T14:13:00.724Z,8.37
2019-01-23T14:15:32.698Z,8.33
2019-01-23T14:18:01.362Z,7.70
2019-01-23T14:20:30.019Z,7.70
2019-01-23T14:22:58.734Z,7.63
2019-01-23T14:25:27.498Z,7.70
2019-01-23T14:27:56.302Z,7.53
2019-01-23T14:30:33.221Z,7.17
2019-01-23T14:33:01.819Z,7.50
2019-01-23T14:35:31.042Z,8.10
2019-01-23T14:38:00.778Z,8.40
2019-01-23T14:40:29.676Z,8.07
2019-01-23T14:42:58.391Z,8.33
2019-01-23T14:45:27.213Z,9.17
2019-01-23T14:47:55.934Z,7.63
2019-01-23T14:50:25.111Z,8.30
2019-01-23T14:52:54.063Z,7.73
2019-01-23T14:55:22.782Z,8.73
2019-01-23T14:57:51.619Z,8.33
2019-01-23T15:00:29.112Z,7.67
2019-01-23T15:02:57.817Z,8.63
2019-01-23T15:05:26.553Z,8.40
2019-01-23T15:07:55.136Z,8.20
2019-01-23T15:10:29.476Z,8.63
2019-01-23T15:12:58.109Z,7.90
2019-01-23T15:15:27.118Z,8.87
2019-01-23T15:17:56.197Z,8.83
2019-01-23T15:20:33.471Z,9.23
2019-01-23T15:23:02.233Z,8.50
2019-01-23T15:25:31.050Z,9.87
2019-01-23T15:27:59.761Z,9.50
2019-01-23T15:30:28.483Z,9.37
2019-01-23T15:32:57.054Z,9.40
2019-01-23T15:35:25.706Z,9.60
2019-01-23T15:37:54.422Z,9.27
2019-01-23T15:40:25.454Z,9.50
2019-01-23T15:42:54.121Z,9.63
2019-01-23T15:45:22.835Z,9.63
2019-01-23T15:47:51.484Z,9.87
2019-01-23T15:50:22.862Z,10.40
2019-01-23T15:52:51.586Z,9.70
2019-01-23T15:55:21.994Z,9.57
2019-01-23T15:57:50.750Z,9.13
2019-01-23T16:00:24.890Z,9.93
2019-01-23T16:02:53.716Z,9.93
2019-01-23T16:05:22.390Z,10.07
2019-01-23T16:08:10.351Z,9.63
2019-01-23T16:10:39.062Z,9.57
2019-01-23T16:13:07.750Z,10.70
2019-01-23T16:15:36.375Z,10.03
2019-01-23T16:18:04.959Z,9.53
2019-01-23T16:20:33.543Z,9.70
2019-01-23T16:23:02.558Z,10.53
2019-01-23T16:25:31.178Z,10.20
2019-01-23T16:27:59.894Z,10.40
2019-01-23T16:30:33.900Z,9.83
2019-01-23T16:33:02.610Z,10.30
2019-01-23T16:35:38.311Z,10.67
2019-01-23T16:38:21.218Z,10.50
2019-01-23T16:40:49.833Z,10.03
2019-01-23T16:43:18.582Z,10.33
2019-01-23T16:45:47.222Z,9.50
2019-01-23T16:48:15.816Z,9.63
2019-01-23T16:50:44.550Z,9.63
2019-01-23T16:53:13.142Z,10.00
2019-01-23T16:55:41.787Z,10.03
2019-01-23T16:58:10.705Z,9.77
2019-01-23T17:00:39.551Z,10.77
2019-01-23T17:03:08.555Z,10.83
2019-01-23T17:05:37.266Z,10.60
2019-01-23T17:08:06.591Z,9.57
2019-01-23T17:10:35.250Z,10.50
2019-01-23T17:13:04.058Z,10.67
2019-01-23T17:15:32.826Z,10.50
2019-01-23T17:18:01.471Z,10.60
2019-01-23T17:20:39.079Z,9.47
2019-01-23T17:23:07.896Z,10.97
2019-01-23T17:25:36.671Z,10.33
2019-01-23T17:28:07.167Z,9.43
2019-01-23T17:30:35.989Z,10.10
2019-01-23T17:33:04.815Z,10.37
2019-01-23T17:35:33.562Z,10.70
2019-01-23T17:38:02.385Z,10.60
2019-01-23T17:40:31.034Z,11.13
2019-01-23T17:42:59.761Z,9.70
2019-01-23T17:45:39.655Z,11.17
2019-01-23T17:48:11.071Z,11.57
2019-01-23T17:50:39.713Z,10.93
2019-01-23T17:53:08.532Z,11.40
2019-01-23T17:55:38.872Z,11.23
2019-01-23T17:58:09.888Z,10.13
2019-01-23T18:00:40.198Z,11.87
2019-01-23T18:03:09.010Z,11.40
2019-01-23T18:05:37.735Z,11.47
2019-01-23T18:08:06.563Z,11.53
2019-01-23T18:10:35.278Z,12.00
2019-01-23T18:13:04.311Z,10.27
2019-01-23T18:15:35.734Z,11.93
2019-01-23T18:18:04.838Z,11.40
2019-01-23T18:20:33.415Z,10.60
2019-01-23T18:23:02.070Z,11.23
2019-01-23T18:25:30.739Z,11.90
2019-01-23T18:27:59.454Z,11.17
2019-01-23T18:30:40.186Z,12.10
2019-01-23T18:33:11.850Z,12.30
2019-01-23T18:36:01.955Z,10.70
2019-01-23T18:38:48.710Z,11.60
2019-01-23T18:41:32.594Z,11.60
2019-01-23T18:44:09.773Z,12.30
2019-01-23T18:46:56.741Z,11.73
2019-01-23T18:49:28.413Z,11.07
2019-01-23T18:52:14.158Z,10.93
2019-01-23T18:54:43.975Z,11.07
2019-01-23T18:57:18.370Z,11.70
2019-01-23T18:59:47.091Z,11.97
2019-01-23T19:02:15.813Z,11.53
2019-01-23T19:04:44.469Z,11.90
2019-01-23T19:07:13.113Z,12.40
2019-01-23T19:09:41.714Z,12.47
2019-01-23T19:12:10.630Z,12.67
2019-01-23T19:14:39.282Z,12.93
2019-01-23T19:17:08.007Z,12.93
2019-01-23T19:19:36.722Z,13.13
2019-01-23T19:22:06.454Z,14.30
2019-01-23T19:24:35.030Z,12.40
2019-01-23T19:27:03.746Z,12.77
2019-01-23T19:29:32.402Z,13.03
2019-01-23T19:32:01.047Z,11.17
2019-01-23T19:34:29.627Z,12.63
2019-01-23T19:36:58.407Z,12.37
2019-01-23T19:39:27.003Z,12.40
2019-01-23T19:41:55.659Z,12.60
2019-01-23T19:44:24.268Z,13.27
2019-01-23T19:46:52.822Z,12.23
2019-01-23T19:49:21.576Z,13.00
2019-01-23T19:51:50.230Z,12.57
2019-01-23T19:54:18.802Z,12.83
2019-01-23T19:56:47.527Z,12.83
2019-01-23T19:59:16.104Z,12.30
2019-01-23T20:01:44.758Z,12.97
2019-01-23T20:04:13.539Z,12.37
2019-01-23T20:06:42.546Z,13.13
2019-01-23T20:09:11.491Z,13.17
2019-01-23T20:11:40.426Z,13.63
2019-01-23T20:14:09.246Z,11.90
2019-01-23T20:16:38.042Z,11.60
2019-01-23T20:19:08.270Z,12.33
2019-01-23T20:21:37.101Z,12.30
2019-01-23T20:24:05.862Z,12.50
2019-01-23T20:26:34.554Z,11.70
2019-01-23T20:29:03.202Z,12.83
2019-01-23T20:31:31.858Z,13.70
2019-01-23T20:34:00.451Z,12.50
2019-01-23T20:36:29.106Z,14.03
2019-01-23T20:38:57.682Z,12.77
2019-01-23T20:41:26.283Z,12.27
2019-01-23T20:43:54.877Z,13.30
2019-01-23T20:46:23.730Z,12.77
2019-01-23T20:48:52.306Z,12.60
2019-01-23T20:51:20.878Z,13.27
2019-01-23T20:53:49.465Z,14.20
2019-01-23T20:56:18.046Z,14.03
2019-01-23T20:58:46.714Z,13.63
2019-01-23T21:01:15.322Z,13.17
2019-01-23T21:03:43.903Z,13.93
2019-01-23T21:06:12.642Z,13.47
2019-01-23T21:08:41.302Z,12.90
2019-01-23T21:11:10.039Z,13.23
2019-01-23T21:13:38.699Z,13.30
2019-01-23T21:16:07.344Z,13.17
2019-01-23T21:18:36.040Z,13.93
2019-01-23T21:21:04.858Z,14.60
2019-01-23T21:23:33.478Z,12.70
2019-01-23T21:26:02.056Z,12.23
2019-01-23T21:28:30.769Z,12.07
2019-01-23T21:30:59.426Z,12.57
2019-01-23T21:33:28.071Z,12.53
2019-01-23T21:35:56.661Z,13.10
2019-01-23T21:38:25.238Z,13.83
2019-01-23T21:40:53.862Z,12.07
2019-01-23T21:43:22.494Z,12.77
2019-01-23T21:45:51.090Z,13.50
2019-01-23T21:48:19.846Z,13.13
2019-01-23T21:50:48.510Z,14.07
2019-01-23T21:53:17.130Z,13.10
2019-01-23T21:55:45.706Z,13.67
2019-01-23T21:58:14.346Z,13.13
2019-01-23T22:00:43.601Z,12.50
2019-01-23T22:03:12.414Z,13.73
2019-01-23T22:05:41.149Z,14.70
2019-01-23T22:08:09.863Z,13.87
2019-01-23T22:10:38.518Z,13.37
2019-01-23T22:13:07.349Z,14.77
2019-01-23T22:15:36.295Z,14.53
2019-01-23T22:18:06.009Z,12.30
2019-01-23T22:20:35.725Z,11.37
2019-01-23T22:23:04.433Z,13.63
2019-01-23T22:25:33.022Z,11.53
2019-01-23T22:28:01.762Z,14.20
2019-01-23T22:30:33.210Z,13.10
2019-01-23T22:33:02.046Z,14.17
2019-01-23T22:35:30.694Z,12.13
2019-01-23T22:37:59.341Z,12.57
2019-01-23T22:40:28.060Z,12.63
2019-01-23T22:42:56.723Z,12.03
2019-01-23T22:45:25.310Z,11.63
2019-01-23T22:47:53.951Z,12.00
2019-01-23T22:50:26.870Z,12.07
2019-01-23T22:52:55.785Z,12.00
2019-01-23T22:55:24.503Z,11.63
2019-01-23T22:57:53.214Z,12.50
2019-01-23T23:00:40.773Z,11.90
2019-01-23T23:03:11.486Z,12.63
2019-01-23T23:05:40.074Z,12.50
2019-01-23T23:08:08.891Z,14.13
2019-01-23T23:10:37.859Z,14.43
2019-01-23T23:13:06.577Z,16.13
2019-01-23T23:15:35.225Z,14.70
2019-01-23T23:18:04.370Z,15.00
2019-01-23T23:20:32.946Z,15.63
2019-01-23T23:23:01.670Z,11.80
2019-01-23T23:25:30.314Z,13.60
2019-01-23T23:27:59.045Z,16.63
2019-01-23T23:30:28.026Z,14.77
2019-01-23T23:32:56.626Z,14.07
2019-01-23T23:35:25.283Z,13.33
2019-01-23T23:37:53.859Z,13.73
2019-01-23T23:40:22.591Z,12.83
2019-01-23T23:42:52.065Z,13.50
2019-01-23T23:45:20.994Z,12.87
2019-01-23T23:47:49.570Z,12.87
2019-01-23T23:50:18.690Z,13.43
2019-01-23T23:52:47.408Z,12.37
2019-01-23T23:55:16.532Z,13.20
2019-01-23T23:57:45.337Z,13.93
